sensor_id;sensor_type;location;lat;lon;timestamp;temperature;humidity
51801;DHT22;37855;53.204;6.568;2022-07-01T00:00:58;18.00;91.60
51801;DHT22;37855;53.204;6.568;2022-07-01T00:03:23;18.00;91.70
51801;DHT22;37855;53.204;6.568;2022-07-01T00:05:49;17.90;91.60
51801;DHT22;37855;53.204;6.568;2022-07-01T00:08:15;17.90;92.30
51801;DHT22;37855;53.204;6.568;2022-07-01T00:10:41;18.00;92.20
51801;DHT22;37855;53.204;6.568;2022-07-01T00:13:06;18.00;92.00
51801;DHT22;37855;53.204;6.568;2022-07-01T00:15:32;18.00;92.20
51801;DHT22;37855;53.204;6.568;2022-07-01T00:17:58;18.10;92.20
51801;DHT22;37855;53.204;6.568;2022-07-01T00:20:24;18.10;92.00
51801;DHT22;37855;53.204;6.568;2022-07-01T00:22:50;18.00;91.90
51801;DHT22;37855;53.204;6.568;2022-07-01T00:25:16;17.90;92.20
51801;DHT22;37855;53.204;6.568;2022-07-01T00:27:42;18.00;92.50
51801;DHT22;37855;53.204;6.568;2022-07-01T00:30:09;18.10;92.50
51801;DHT22;37855;53.204;6.568;2022-07-01T00:32:35;18.30;92.30
51801;DHT22;37855;53.204;6.568;2022-07-01T00:35:02;18.40;92.00
51801;DHT22;37855;53.204;6.568;2022-07-01T00:37:27;18.40;91.80
51801;DHT22;37855;53.204;6.568;2022-07-01T00:39:53;18.40;91.70
51801;DHT22;37855;53.204;6.568;2022-07-01T00:42:19;18.50;91.80
51801;DHT22;37855;53.204;6.568;2022-07-01T00:44:44;18.60;91.60
51801;DHT22;37855;53.204;6.568;2022-07-01T00:47:12;18.60;91.30
51801;DHT22;37855;53.204;6.568;2022-07-01T00:49:39;18.70;91.00
51801;DHT22;37855;53.204;6.568;2022-07-01T00:52:09;18.60;91.20
51801;DHT22;37855;53.204;6.568;2022-07-01T00:54:36;18.50;90.80
51801;DHT22;37855;53.204;6.568;2022-07-01T00:57:09;18.40;91.00
51801;DHT22;37855;53.204;6.568;2022-07-01T00:59:36;18.30;91.50
51801;DHT22;37855;53.204;6.568;2022-07-01T01:02:03;18.30;91.90
51801;DHT22;37855;53.204;6.568;2022-07-01T01:04:29;18.40;91.80
51801;DHT22;37855;53.204;6.568;2022-07-01T01:06:56;18.40;91.60
51801;DHT22;37855;53.204;6.568;2022-07-01T01:09:21;18.50;91.60
51801;DHT22;37855;53.204;6.568;2022-07-01T01:11:47;18.60;91.30
51801;DHT22;37855;53.204;6.568;2022-07-01T01:14:13;18.70;90.80
51801;DHT22;37855;53.204;6.568;2022-07-01T01:16:41;18.60;90.60
51801;DHT22;37855;53.204;6.568;2022-07-01T01:19:07;18.50;90.80
51801;DHT22;37855;53.204;6.568;2022-07-01T01:21:35;18.50;90.90
51801;DHT22;37855;53.204;6.568;2022-07-01T01:24:01;18.50;91.00
51801;DHT22;37855;53.204;6.568;2022-07-01T01:26:28;18.60;90.90
51801;DHT22;37855;53.204;6.568;2022-07-01T01:28:53;18.60;90.40
51801;DHT22;37855;53.204;6.568;2022-07-01T01:31:28;18.50;90.40
51801;DHT22;37855;53.204;6.568;2022-07-01T01:33:54;18.50;90.30
51801;DHT22;37855;53.204;6.568;2022-07-01T01:36:20;18.50;90.40
51801;DHT22;37855;53.204;6.568;2022-07-01T01:38:46;18.50;90.30
51801;DHT22;37855;53.204;6.568;2022-07-01T01:41:11;18.50;90.10
51801;DHT22;37855;53.204;6.568;2022-07-01T01:43:37;18.50;90.10
51801;DHT22;37855;53.204;6.568;2022-07-01T01:46:03;18.50;90.10
51801;DHT22;37855;53.204;6.568;2022-07-01T01:48:30;18.60;90.10
51801;DHT22;37855;53.204;6.568;2022-07-01T01:50:56;18.50;90.10
51801;DHT22;37855;53.204;6.568;2022-07-01T01:53:21;18.60;90.00
51801;DHT22;37855;53.204;6.568;2022-07-01T01:55:47;18.60;89.90
51801;DHT22;37855;53.204;6.568;2022-07-01T01:58:13;18.70;89.30
51801;DHT22;37855;53.204;6.568;2022-07-01T02:00:38;18.60;89.30
51801;DHT22;37855;53.204;6.568;2022-07-01T02:03:04;18.60;89.60
51801;DHT22;37855;53.204;6.568;2022-07-01T02:05:30;18.60;89.40
51801;DHT22;37855;53.204;6.568;2022-07-01T02:07:56;18.70;89.20
51801;DHT22;37855;53.204;6.568;2022-07-01T02:10:22;18.60;89.40
51801;DHT22;37855;53.204;6.568;2022-07-01T02:12:47;18.60;89.40
51801;DHT22;37855;53.204;6.568;2022-07-01T02:15:13;18.70;89.50
51801;DHT22;37855;53.204;6.568;2022-07-01T02:17:39;18.70;89.20
51801;DHT22;37855;53.204;6.568;2022-07-01T02:20:05;18.70;89.00
51801;DHT22;37855;53.204;6.568;2022-07-01T02:22:31;18.70;88.40
51801;DHT22;37855;53.204;6.568;2022-07-01T02:24:56;18.70;88.50
51801;DHT22;37855;53.204;6.568;2022-07-01T02:27:22;18.60;88.80
51801;DHT22;37855;53.204;6.568;2022-07-01T02:29:48;18.60;88.80
51801;DHT22;37855;53.204;6.568;2022-07-01T02:32:13;18.60;88.70
51801;DHT22;37855;53.204;6.568;2022-07-01T02:34:39;18.70;88.60
51801;DHT22;37855;53.204;6.568;2022-07-01T02:37:05;18.70;88.50
51801;DHT22;37855;53.204;6.568;2022-07-01T02:39:32;18.60;88.40
51801;DHT22;37855;53.204;6.568;2022-07-01T02:42:01;18.50;88.80
51801;DHT22;37855;53.204;6.568;2022-07-01T02:44:45;18.50;88.90
51801;DHT22;37855;53.204;6.568;2022-07-01T02:47:12;18.50;88.90
51801;DHT22;37855;53.204;6.568;2022-07-01T02:49:38;18.50;89.10
51801;DHT22;37855;53.204;6.568;2022-07-01T02:52:06;18.50;89.60
51801;DHT22;37855;53.204;6.568;2022-07-01T02:54:32;18.40;89.40
51801;DHT22;37855;53.204;6.568;2022-07-01T02:56:58;18.40;89.80
51801;DHT22;37855;53.204;6.568;2022-07-01T02:59:23;18.40;90.00
51801;DHT22;37855;53.204;6.568;2022-07-01T03:01:49;18.40;89.70
51801;DHT22;37855;53.204;6.568;2022-07-01T03:04:15;18.40;89.80
51801;DHT22;37855;53.204;6.568;2022-07-01T03:06:42;18.40;89.80
51801;DHT22;37855;53.204;6.568;2022-07-01T03:09:07;18.60;90.00
51801;DHT22;37855;53.204;6.568;2022-07-01T03:11:33;18.50;89.60
51801;DHT22;37855;53.204;6.568;2022-07-01T03:14:05;18.40;89.40
51801;DHT22;37855;53.204;6.568;2022-07-01T03:16:32;18.40;89.40
51801;DHT22;37855;53.204;6.568;2022-07-01T03:18:58;18.40;89.30
51801;DHT22;37855;53.204;6.568;2022-07-01T03:21:24;18.40;89.10
51801;DHT22;37855;53.204;6.568;2022-07-01T03:23:49;18.40;89.10
51801;DHT22;37855;53.204;6.568;2022-07-01T03:26:15;18.30;88.90
51801;DHT22;37855;53.204;6.568;2022-07-01T03:28:41;18.40;89.50
51801;DHT22;37855;53.204;6.568;2022-07-01T03:31:09;18.40;89.50
51801;DHT22;37855;53.204;6.568;2022-07-01T03:33:35;18.40;89.10
51801;DHT22;37855;53.204;6.568;2022-07-01T03:36:00;18.30;89.10
51801;DHT22;37855;53.204;6.568;2022-07-01T03:38:26;18.30;89.10
51801;DHT22;37855;53.204;6.568;2022-07-01T03:40:52;18.30;89.40
51801;DHT22;37855;53.204;6.568;2022-07-01T03:43:17;18.30;88.90
51801;DHT22;37855;53.204;6.568;2022-07-01T03:45:43;18.30;89.00
51801;DHT22;37855;53.204;6.568;2022-07-01T03:48:08;18.30;88.70
51801;DHT22;37855;53.204;6.568;2022-07-01T03:50:35;18.30;88.80
51801;DHT22;37855;53.204;6.568;2022-07-01T03:53:01;18.20;88.70
51801;DHT22;37855;53.204;6.568;2022-07-01T03:55:45;18.30;88.20
51801;DHT22;37855;53.204;6.568;2022-07-01T03:58:11;18.20;88.30
51801;DHT22;37855;53.204;6.568;2022-07-01T04:00:38;18.20;88.50
51801;DHT22;37855;53.204;6.568;2022-07-01T04:03:05;18.20;88.60
51801;DHT22;37855;53.204;6.568;2022-07-01T04:05:37;18.30;88.30
51801;DHT22;37855;53.204;6.568;2022-07-01T04:08:05;18.20;88.20
51801;DHT22;37855;53.204;6.568;2022-07-01T04:10:33;18.20;88.40
51801;DHT22;37855;53.204;6.568;2022-07-01T04:13:00;18.30;88.50
51801;DHT22;37855;53.204;6.568;2022-07-01T04:15:26;18.30;88.30
51801;DHT22;37855;53.204;6.568;2022-07-01T04:17:52;18.40;88.30
51801;DHT22;37855;53.204;6.568;2022-07-01T04:20:17;18.40;88.10
51801;DHT22;37855;53.204;6.568;2022-07-01T04:22:43;18.50;88.00
51801;DHT22;37855;53.204;6.568;2022-07-01T04:25:09;18.50;87.60
51801;DHT22;37855;53.204;6.568;2022-07-01T04:27:35;18.50;87.50
51801;DHT22;37855;53.204;6.568;2022-07-01T04:30:00;18.60;87.20
51801;DHT22;37855;53.204;6.568;2022-07-01T04:32:29;18.60;86.80
51801;DHT22;37855;53.204;6.568;2022-07-01T04:34:56;18.60;86.80
51801;DHT22;37855;53.204;6.568;2022-07-01T04:37:22;18.60;86.40
51801;DHT22;37855;53.204;6.568;2022-07-01T04:39:48;18.70;86.40
51801;DHT22;37855;53.204;6.568;2022-07-01T04:42:13;18.60;86.50
51801;DHT22;37855;53.204;6.568;2022-07-01T04:44:40;18.60;86.60
51801;DHT22;37855;53.204;6.568;2022-07-01T04:47:06;18.60;86.50
51801;DHT22;37855;53.204;6.568;2022-07-01T04:49:32;18.70;86.20
51801;DHT22;37855;53.204;6.568;2022-07-01T04:51:58;18.60;86.10
51801;DHT22;37855;53.204;6.568;2022-07-01T04:54:24;18.60;86.40
51801;DHT22;37855;53.204;6.568;2022-07-01T04:56:51;18.60;86.40
51801;DHT22;37855;53.204;6.568;2022-07-01T04:59:18;18.60;86.50
51801;DHT22;37855;53.204;6.568;2022-07-01T05:01:45;18.60;86.60
51801;DHT22;37855;53.204;6.568;2022-07-01T05:04:14;18.60;86.50
51801;DHT22;37855;53.204;6.568;2022-07-01T05:06:40;18.60;86.60
51801;DHT22;37855;53.204;6.568;2022-07-01T05:09:06;18.60;86.60
51801;DHT22;37855;53.204;6.568;2022-07-01T05:11:32;18.60;86.70
51801;DHT22;37855;53.204;6.568;2022-07-01T05:13:58;18.60;86.50
51801;DHT22;37855;53.204;6.568;2022-07-01T05:16:24;18.60;86.70
51801;DHT22;37855;53.204;6.568;2022-07-01T05:18:49;18.60;86.80
51801;DHT22;37855;53.204;6.568;2022-07-01T05:21:33;18.60;86.80
51801;DHT22;37855;53.204;6.568;2022-07-01T05:24:17;18.70;86.80
51801;DHT22;37855;53.204;6.568;2022-07-01T05:26:43;18.70;86.60
51801;DHT22;37855;53.204;6.568;2022-07-01T05:29:09;18.70;86.50
51801;DHT22;37855;53.204;6.568;2022-07-01T05:31:35;18.70;86.50
51801;DHT22;37855;53.204;6.568;2022-07-01T05:34:04;18.70;86.50
51801;DHT22;37855;53.204;6.568;2022-07-01T05:36:29;18.80;86.60
51801;DHT22;37855;53.204;6.568;2022-07-01T05:38:55;18.80;86.70
51801;DHT22;37855;53.204;6.568;2022-07-01T05:41:21;18.80;86.60
51801;DHT22;37855;53.204;6.568;2022-07-01T05:43:46;18.80;86.60
51801;DHT22;37855;53.204;6.568;2022-07-01T05:46:12;18.80;86.50
51801;DHT22;37855;53.204;6.568;2022-07-01T05:48:38;18.80;86.40
51801;DHT22;37855;53.204;6.568;2022-07-01T05:51:03;18.80;86.40
51801;DHT22;37855;53.204;6.568;2022-07-01T05:53:29;18.80;86.70
51801;DHT22;37855;53.204;6.568;2022-07-01T05:55:55;18.80;86.70
51801;DHT22;37855;53.204;6.568;2022-07-01T05:58:20;18.80;86.80
51801;DHT22;37855;53.204;6.568;2022-07-01T06:00:46;18.90;87.00
51801;DHT22;37855;53.204;6.568;2022-07-01T06:03:13;18.80;86.40
51801;DHT22;37855;53.204;6.568;2022-07-01T06:05:39;18.90;86.40
51801;DHT22;37855;53.204;6.568;2022-07-01T06:08:06;18.90;86.20
51801;DHT22;37855;53.204;6.568;2022-07-01T06:10:33;18.90;86.10
51801;DHT22;37855;53.204;6.568;2022-07-01T06:12:59;18.90;86.40
51801;DHT22;37855;53.204;6.568;2022-07-01T06:15:25;18.90;86.50
51801;DHT22;37855;53.204;6.568;2022-07-01T06:17:51;18.90;86.30
51801;DHT22;37855;53.204;6.568;2022-07-01T06:20:17;19.00;86.40
51801;DHT22;37855;53.204;6.568;2022-07-01T06:22:43;19.00;86.00
51801;DHT22;37855;53.204;6.568;2022-07-01T06:25:09;19.00;85.80
51801;DHT22;37855;53.204;6.568;2022-07-01T06:27:39;19.00;85.70
51801;DHT22;37855;53.204;6.568;2022-07-01T06:30:05;19.10;85.90
51801;DHT22;37855;53.204;6.568;2022-07-01T06:32:31;18.90;85.80
51801;DHT22;37855;53.204;6.568;2022-07-01T06:34:59;18.90;86.90
51801;DHT22;37855;53.204;6.568;2022-07-01T06:37:25;19.00;87.30
51801;DHT22;37855;53.204;6.568;2022-07-01T06:39:50;19.20;87.10
51801;DHT22;37855;53.204;6.568;2022-07-01T06:42:16;19.00;87.10
51801;DHT22;37855;53.204;6.568;2022-07-01T06:44:42;18.90;87.00
51801;DHT22;37855;53.204;6.568;2022-07-01T06:47:08;19.00;87.20
51801;DHT22;37855;53.204;6.568;2022-07-01T06:49:33;19.10;86.80
51801;DHT22;37855;53.204;6.568;2022-07-01T06:52:02;19.10;86.10
51801;DHT22;37855;53.204;6.568;2022-07-01T06:54:28;19.10;86.30
51801;DHT22;37855;53.204;6.568;2022-07-01T06:56:54;19.10;86.10
51801;DHT22;37855;53.204;6.568;2022-07-01T06:59:20;19.20;86.00
51801;DHT22;37855;53.204;6.568;2022-07-01T07:01:45;19.30;85.90
51801;DHT22;37855;53.204;6.568;2022-07-01T07:04:11;19.40;85.80
51801;DHT22;37855;53.204;6.568;2022-07-01T07:06:37;19.40;84.90
51801;DHT22;37855;53.204;6.568;2022-07-01T07:09:03;19.40;85.20
51801;DHT22;37855;53.204;6.568;2022-07-01T07:11:31;19.40;84.70
51801;DHT22;37855;53.204;6.568;2022-07-01T07:13:57;19.40;84.80
51801;DHT22;37855;53.204;6.568;2022-07-01T07:16:25;19.40;84.50
51801;DHT22;37855;53.204;6.568;2022-07-01T07:18:52;19.50;84.40
51801;DHT22;37855;53.204;6.568;2022-07-01T07:21:18;19.50;84.60
51801;DHT22;37855;53.204;6.568;2022-07-01T07:23:43;19.50;84.30
51801;DHT22;37855;53.204;6.568;2022-07-01T07:26:12;19.60;84.10
51801;DHT22;37855;53.204;6.568;2022-07-01T07:28:39;19.60;83.80
51801;DHT22;37855;53.204;6.568;2022-07-01T07:31:06;19.40;83.50
51801;DHT22;37855;53.204;6.568;2022-07-01T07:33:31;19.60;83.60
51801;DHT22;37855;53.204;6.568;2022-07-01T07:35:57;19.60;83.60
51801;DHT22;37855;53.204;6.568;2022-07-01T07:38:23;19.60;84.80
51801;DHT22;37855;53.204;6.568;2022-07-01T07:40:49;19.60;84.50
51801;DHT22;37855;53.204;6.568;2022-07-01T07:43:14;19.60;84.30
51801;DHT22;37855;53.204;6.568;2022-07-01T07:45:40;19.60;84.10
51801;DHT22;37855;53.204;6.568;2022-07-01T07:48:06;19.60;83.60
51801;DHT22;37855;53.204;6.568;2022-07-01T07:50:32;19.50;81.90
51801;DHT22;37855;53.204;6.568;2022-07-01T07:52:58;19.50;83.50
51801;DHT22;37855;53.204;6.568;2022-07-01T07:55:24;19.50;84.70
51801;DHT22;37855;53.204;6.568;2022-07-01T07:57:50;19.50;84.60
51801;DHT22;37855;53.204;6.568;2022-07-01T08:00:19;19.60;84.10
51801;DHT22;37855;53.204;6.568;2022-07-01T08:06:01;19.60;82.60
51801;DHT22;37855;53.204;6.568;2022-07-01T08:08:28;19.60;82.70
51801;DHT22;37855;53.204;6.568;2022-07-01T08:10:53;19.60;83.00
51801;DHT22;37855;53.204;6.568;2022-07-01T08:13:19;19.70;83.20
51801;DHT22;37855;53.204;6.568;2022-07-01T08:15:55;19.80;82.80
51801;DHT22;37855;53.204;6.568;2022-07-01T08:18:21;19.80;81.90
51801;DHT22;37855;53.204;6.568;2022-07-01T08:20:47;19.80;81.30
51801;DHT22;37855;53.204;6.568;2022-07-01T08:23:13;19.80;81.00
51801;DHT22;37855;53.204;6.568;2022-07-01T08:25:42;19.70;80.70
51801;DHT22;37855;53.204;6.568;2022-07-01T08:28:07;19.70;81.00
51801;DHT22;37855;53.204;6.568;2022-07-01T08:30:36;19.80;81.40
51801;DHT22;37855;53.204;6.568;2022-07-01T08:33:02;19.80;81.50
51801;DHT22;37855;53.204;6.568;2022-07-01T08:35:28;19.90;81.10
51801;DHT22;37855;53.204;6.568;2022-07-01T08:37:54;20.10;80.60
51801;DHT22;37855;53.204;6.568;2022-07-01T08:40:26;20.10;80.00
51801;DHT22;37855;53.204;6.568;2022-07-01T08:42:58;20.10;79.70
51801;DHT22;37855;53.204;6.568;2022-07-01T08:45:28;20.20;78.80
51801;DHT22;37855;53.204;6.568;2022-07-01T08:47:58;20.20;78.60
51801;DHT22;37855;53.204;6.568;2022-07-01T08:50:27;20.20;78.50
51801;DHT22;37855;53.204;6.568;2022-07-01T08:52:55;20.10;78.50
51801;DHT22;37855;53.204;6.568;2022-07-01T08:55:21;20.20;78.40
51801;DHT22;37855;53.204;6.568;2022-07-01T08:57:48;20.20;77.70
51801;DHT22;37855;53.204;6.568;2022-07-01T09:00:17;20.30;76.70
51801;DHT22;37855;53.204;6.568;2022-07-01T09:03:01;20.30;76.20
51801;DHT22;37855;53.204;6.568;2022-07-01T09:05:30;20.20;74.20
51801;DHT22;37855;53.204;6.568;2022-07-01T09:08:06;20.20;74.20
51801;DHT22;37855;53.204;6.568;2022-07-01T09:10:33;20.10;74.10
51801;DHT22;37855;53.204;6.568;2022-07-01T09:13:08;20.20;74.40
51801;DHT22;37855;53.204;6.568;2022-07-01T09:15:36;20.30;75.10
51801;DHT22;37855;53.204;6.568;2022-07-01T09:18:10;20.50;74.90
51801;DHT22;37855;53.204;6.568;2022-07-01T09:20:41;20.60;73.50
51801;DHT22;37855;53.204;6.568;2022-07-01T09:23:11;20.70;73.20
51801;DHT22;37855;53.204;6.568;2022-07-01T09:25:42;20.70;72.70
51801;DHT22;37855;53.204;6.568;2022-07-01T09:28:13;20.70;73.10
51801;DHT22;37855;53.204;6.568;2022-07-01T09:30:42;20.70;72.70
51801;DHT22;37855;53.204;6.568;2022-07-01T09:33:25;20.60;71.80
51801;DHT22;37855;53.204;6.568;2022-07-01T09:35:52;20.60;71.60
51801;DHT22;37855;53.204;6.568;2022-07-01T09:38:20;20.60;71.90
51801;DHT22;37855;53.204;6.568;2022-07-01T09:40:53;20.70;72.70
51801;DHT22;37855;53.204;6.568;2022-07-01T09:43:46;20.80;72.30
51801;DHT22;37855;53.204;6.568;2022-07-01T09:46:12;21.00;72.20
51801;DHT22;37855;53.204;6.568;2022-07-01T09:51:06;21.10;70.50
51801;DHT22;37855;53.204;6.568;2022-07-01T09:53:39;21.10;70.70
51801;DHT22;37855;53.204;6.568;2022-07-01T09:56:05;21.10;69.50
51801;DHT22;37855;53.204;6.568;2022-07-01T09:58:37;21.10;69.50
51801;DHT22;37855;53.204;6.568;2022-07-01T10:01:04;21.10;68.00
51801;DHT22;37855;53.204;6.568;2022-07-01T10:03:33;21.10;67.60
51801;DHT22;37855;53.204;6.568;2022-07-01T10:09:06;21.00;65.40
51801;DHT22;37855;53.204;6.568;2022-07-01T10:14:31;20.90;66.40
51801;DHT22;37855;53.204;6.568;2022-07-01T10:16:57;20.90;68.00
51801;DHT22;37855;53.204;6.568;2022-07-01T10:19:24;21.00;67.40
51801;DHT22;37855;53.204;6.568;2022-07-01T10:21:52;21.00;66.50
51801;DHT22;37855;53.204;6.568;2022-07-01T10:24:24;21.00;66.40
51801;DHT22;37855;53.204;6.568;2022-07-01T10:26:51;21.00;67.10
51801;DHT22;37855;53.204;6.568;2022-07-01T10:32:13;21.20;68.50
51801;DHT22;37855;53.204;6.568;2022-07-01T10:34:53;21.40;68.40
51801;DHT22;37855;53.204;6.568;2022-07-01T10:37:27;21.50;68.20
51801;DHT22;37855;53.204;6.568;2022-07-01T10:42:19;21.70;65.60
51801;DHT22;37855;53.204;6.568;2022-07-01T10:45:07;21.70;64.70
51801;DHT22;37855;53.204;6.568;2022-07-01T10:47:34;21.60;64.60
51801;DHT22;37855;53.204;6.568;2022-07-01T10:50:11;21.60;65.80
51801;DHT22;37855;53.204;6.568;2022-07-01T10:52:38;21.40;65.10
51801;DHT22;37855;53.204;6.568;2022-07-01T10:55:06;21.40;66.30
51801;DHT22;37855;53.204;6.568;2022-07-01T10:57:38;21.40;66.40
51801;DHT22;37855;53.204;6.568;2022-07-01T11:02:34;21.30;66.30
51801;DHT22;37855;53.204;6.568;2022-07-01T11:07:37;21.50;66.60
51801;DHT22;37855;53.204;6.568;2022-07-01T11:10:06;21.50;66.30
51801;DHT22;37855;53.204;6.568;2022-07-01T11:12:33;21.50;65.30
51801;DHT22;37855;53.204;6.568;2022-07-01T11:15:00;21.30;65.50
51801;DHT22;37855;53.204;6.568;2022-07-01T11:17:32;20.90;65.90
51801;DHT22;37855;53.204;6.568;2022-07-01T11:20:00;20.60;67.10
51801;DHT22;37855;53.204;6.568;2022-07-01T11:22:33;20.30;67.80
51801;DHT22;37855;53.204;6.568;2022-07-01T11:25:06;20.10;68.80
51801;DHT22;37855;53.204;6.568;2022-07-01T11:27:33;20.00;69.00
51801;DHT22;37855;53.204;6.568;2022-07-01T11:30:08;19.90;68.10
51801;DHT22;37855;53.204;6.568;2022-07-01T11:32:46;19.90;67.90
51801;DHT22;37855;53.204;6.568;2022-07-01T11:35:21;19.80;68.70
51801;DHT22;37855;53.204;6.568;2022-07-01T11:38:17;19.80;69.10
51801;DHT22;37855;53.204;6.568;2022-07-01T11:41:03;19.80;69.30
51801;DHT22;37855;53.204;6.568;2022-07-01T11:43:36;19.80;68.30
51801;DHT22;37855;53.204;6.568;2022-07-01T11:46:04;19.80;68.60
51801;DHT22;37855;53.204;6.568;2022-07-01T11:48:36;20.00;68.80
51801;DHT22;37855;53.204;6.568;2022-07-01T11:51:14;20.10;68.40
51801;DHT22;37855;53.204;6.568;2022-07-01T11:53:45;20.20;68.70
51801;DHT22;37855;53.204;6.568;2022-07-01T11:56:11;20.30;67.30
51801;DHT22;37855;53.204;6.568;2022-07-01T11:58:50;20.40;67.50
51801;DHT22;37855;53.204;6.568;2022-07-01T12:01:28;20.40;67.50
51801;DHT22;37855;53.204;6.568;2022-07-01T12:03:56;20.30;67.20
51801;DHT22;37855;53.204;6.568;2022-07-01T12:06:22;20.30;68.00
51801;DHT22;37855;53.204;6.568;2022-07-01T12:08:49;20.30;68.20
51801;DHT22;37855;53.204;6.568;2022-07-01T12:11:16;20.50;68.20
51801;DHT22;37855;53.204;6.568;2022-07-01T12:13:44;20.50;67.90
51801;DHT22;37855;53.204;6.568;2022-07-01T12:16:12;20.80;67.90
51801;DHT22;37855;53.204;6.568;2022-07-01T12:18:59;21.00;67.60
51801;DHT22;37855;53.204;6.568;2022-07-01T12:21:27;21.20;67.30
51801;DHT22;37855;53.204;6.568;2022-07-01T12:26:34;21.40;65.70
51801;DHT22;37855;53.204;6.568;2022-07-01T12:29:00;21.40;65.90
51801;DHT22;37855;53.204;6.568;2022-07-01T12:31:29;21.40;63.60
51801;DHT22;37855;53.204;6.568;2022-07-01T12:34:02;21.40;62.90
51801;DHT22;37855;53.204;6.568;2022-07-01T12:36:30;21.40;62.70
51801;DHT22;37855;53.204;6.568;2022-07-01T12:39:06;21.60;59.90
51801;DHT22;37855;53.204;6.568;2022-07-01T12:41:34;21.70;59.10
51801;DHT22;37855;53.204;6.568;2022-07-01T12:44:21;21.70;60.60
51801;DHT22;37855;53.204;6.568;2022-07-01T12:46:46;21.60;60.10
51801;DHT22;37855;53.204;6.568;2022-07-01T12:49:23;21.60;61.30
51801;DHT22;37855;53.204;6.568;2022-07-01T12:51:52;21.50;60.70
51801;DHT22;37855;53.204;6.568;2022-07-01T12:54:33;21.50;61.60
51801;DHT22;37855;53.204;6.568;2022-07-01T12:56:58;21.50;60.90
51801;DHT22;37855;53.204;6.568;2022-07-01T12:59:24;21.50;60.60
51801;DHT22;37855;53.204;6.568;2022-07-01T13:01:50;21.60;60.50
51801;DHT22;37855;53.204;6.568;2022-07-01T13:04:27;21.50;60.80
51801;DHT22;37855;53.204;6.568;2022-07-01T13:06:55;21.50;60.80
51801;DHT22;37855;53.204;6.568;2022-07-01T13:09:22;21.50;60.10
51801;DHT22;37855;53.204;6.568;2022-07-01T13:11:48;21.40;61.00
51801;DHT22;37855;53.204;6.568;2022-07-01T13:14:19;21.40;59.40
51801;DHT22;37855;53.204;6.568;2022-07-01T13:16:48;21.50;59.20
51801;DHT22;37855;53.204;6.568;2022-07-01T13:19:22;21.50;58.80
51801;DHT22;37855;53.204;6.568;2022-07-01T13:21:51;21.40;59.30
51801;DHT22;37855;53.204;6.568;2022-07-01T13:24:18;21.30;60.60
51801;DHT22;37855;53.204;6.568;2022-07-01T13:26:46;21.30;58.10
51801;DHT22;37855;53.204;6.568;2022-07-01T13:29:11;21.30;59.00
51801;DHT22;37855;53.204;6.568;2022-07-01T13:31:40;21.30;57.80
51801;DHT22;37855;53.204;6.568;2022-07-01T13:34:06;21.20;58.00
51801;DHT22;37855;53.204;6.568;2022-07-01T13:36:31;21.10;58.30
51801;DHT22;37855;53.204;6.568;2022-07-01T13:38:57;21.10;58.00
51801;DHT22;37855;53.204;6.568;2022-07-01T13:41:23;21.00;58.10
51801;DHT22;37855;53.204;6.568;2022-07-01T13:43:49;21.00;58.60
51801;DHT22;37855;53.204;6.568;2022-07-01T13:46:15;21.10;59.20
51801;DHT22;37855;53.204;6.568;2022-07-01T13:48:41;21.10;58.90
51801;DHT22;37855;53.204;6.568;2022-07-01T13:51:06;21.20;59.50
51801;DHT22;37855;53.204;6.568;2022-07-01T13:53:32;21.20;59.30
51801;DHT22;37855;53.204;6.568;2022-07-01T13:55:58;21.30;57.50
51801;DHT22;37855;53.204;6.568;2022-07-01T13:58:23;21.40;56.40
51801;DHT22;37855;53.204;6.568;2022-07-01T14:00:49;21.40;53.60
51801;DHT22;37855;53.204;6.568;2022-07-01T14:03:15;21.50;54.00
51801;DHT22;37855;53.204;6.568;2022-07-01T14:05:40;21.60;53.90
51801;DHT22;37855;53.204;6.568;2022-07-01T14:08:09;21.70;52.40
51801;DHT22;37855;53.204;6.568;2022-07-01T14:10:35;21.80;53.50
51801;DHT22;37855;53.204;6.568;2022-07-01T14:13:06;21.90;52.70
51801;DHT22;37855;53.204;6.568;2022-07-01T14:15:32;22.00;52.30
51801;DHT22;37855;53.204;6.568;2022-07-01T14:17:58;22.00;52.90
51801;DHT22;37855;53.204;6.568;2022-07-01T14:20:24;22.00;51.50
51801;DHT22;37855;53.204;6.568;2022-07-01T14:22:51;22.00;51.10
51801;DHT22;37855;53.204;6.568;2022-07-01T14:25:19;21.90;52.60
51801;DHT22;37855;53.204;6.568;2022-07-01T14:27:45;21.80;53.00
51801;DHT22;37855;53.204;6.568;2022-07-01T14:30:12;21.80;53.60
51801;DHT22;37855;53.204;6.568;2022-07-01T14:32:38;21.70;53.70
51801;DHT22;37855;53.204;6.568;2022-07-01T14:35:05;21.70;54.30
51801;DHT22;37855;53.204;6.568;2022-07-01T14:37:32;21.80;54.20
51801;DHT22;37855;53.204;6.568;2022-07-01T14:39:58;21.90;52.40
51801;DHT22;37855;53.204;6.568;2022-07-01T14:42:29;21.90;50.10
51801;DHT22;37855;53.204;6.568;2022-07-01T14:44:56;21.90;47.90
51801;DHT22;37855;53.204;6.568;2022-07-01T14:47:21;21.70;47.30
51801;DHT22;37855;53.204;6.568;2022-07-01T14:49:48;21.60;48.30
51801;DHT22;37855;53.204;6.568;2022-07-01T14:52:16;21.40;50.60
51801;DHT22;37855;53.204;6.568;2022-07-01T14:54:43;21.30;50.60
51801;DHT22;37855;53.204;6.568;2022-07-01T14:57:09;21.30;52.60
51801;DHT22;37855;53.204;6.568;2022-07-01T14:59:35;21.30;52.40
51801;DHT22;37855;53.204;6.568;2022-07-01T15:05:38;21.70;52.30
51801;DHT22;37855;53.204;6.568;2022-07-01T15:08:04;21.80;51.50
51801;DHT22;37855;53.204;6.568;2022-07-01T15:10:36;21.70;52.30
51801;DHT22;37855;53.204;6.568;2022-07-01T15:13:02;21.80;51.10
51801;DHT22;37855;53.204;6.568;2022-07-01T15:15:30;21.80;50.40
51801;DHT22;37855;53.204;6.568;2022-07-01T15:17:56;21.80;52.00
51801;DHT22;37855;53.204;6.568;2022-07-01T15:20:22;21.90;50.80
51801;DHT22;37855;53.204;6.568;2022-07-01T15:22:48;21.80;50.60
51801;DHT22;37855;53.204;6.568;2022-07-01T15:25:15;21.80;50.60
51801;DHT22;37855;53.204;6.568;2022-07-01T15:27:42;21.80;51.50
51801;DHT22;37855;53.204;6.568;2022-07-01T15:30:09;21.70;52.00
51801;DHT22;37855;53.204;6.568;2022-07-01T15:32:35;21.80;51.50
51801;DHT22;37855;53.204;6.568;2022-07-01T15:35:03;21.90;51.10
51801;DHT22;37855;53.204;6.568;2022-07-01T15:37:30;21.90;51.90
51801;DHT22;37855;53.204;6.568;2022-07-01T15:39:56;21.90;52.20
51801;DHT22;37855;53.204;6.568;2022-07-01T15:42:21;21.90;51.00
51801;DHT22;37855;53.204;6.568;2022-07-01T15:44:48;21.80;50.90
51801;DHT22;37855;53.204;6.568;2022-07-01T15:47:14;21.90;50.90
51801;DHT22;37855;53.204;6.568;2022-07-01T15:49:58;21.90;51.50
51801;DHT22;37855;53.204;6.568;2022-07-01T15:52:24;21.90;51.40
51801;DHT22;37855;53.204;6.568;2022-07-01T15:54:49;21.90;50.90
51801;DHT22;37855;53.204;6.568;2022-07-01T15:57:15;21.80;51.00
51801;DHT22;37855;53.204;6.568;2022-07-01T15:59:41;21.70;50.30
51801;DHT22;37855;53.204;6.568;2022-07-01T16:02:07;21.70;51.20